EYSA/SQQ METAR and TAF weather

Enter ICAO airport designator
Station Type Date Time Source
EYSA METAR 2020/06/06 14:50 UTC NOAA

EYSA 061450Z 22015KT 190V250 CAVOK 19/05 Q1005 BLU NOSIG


Station Type Date Time Source
EYSA Decoded METAR 2020/06/06 14:50 UTC NOAA

Siauliai Intl./Mil., Lithuania (EYSA) 55-53-38N 023-23-42E
Jun 06, 2020 - 10:50 AM EDT / 2020.06.06 1450 UTC
Wind: from the SW (220 degrees) at 17 MPH (15 KT) (direction variable):0
Visibility: greater than 7 mile(s):0
Temperature: 66 F (19 C)
Dew Point: 41 F (5 C)
Relative Humidity: 39%
Pressure (altimeter): 29.68 in. Hg (1005 hPa)
ob: EYSA 061450Z 22015KT 190V250 CAVOK 19/05 Q1005 BLU NOSIG
cycle: 15

Station Type Date Time Source
EYSA TAF 2019/12/04 21:03 UTC NOAA

TAF TAF EYSA 042001Z 0421/0509 26012KT 7000 OVC006
TEMPO 0421/0502 3000 BR OVC004

Example: see airport list